sensor_id;sensor_type;location;lat;lon;timestamp;pressure;altitude;pressure_sealevel;temperature;humidity
50590;BME280;36547;50.514;30.840;2023-05-22T00:00:49;100472.49;;;14.06;52.54
50590;BME280;36547;50.514;30.840;2023-05-22T00:01:53;100470.00;;;14.03;52.43
50590;BME280;36547;50.514;30.840;2023-05-22T00:02:56;100471.16;;;13.99;52.30
50590;BME280;36547;50.514;30.840;2023-05-22T00:03:58;100462.29;;;13.98;52.25
50590;BME280;36547;50.514;30.840;2023-05-22T00:05:01;100471.16;;;13.99;52.24
50590;BME280;36547;50.514;30.840;2023-05-22T00:06:04;100468.58;;;13.97;52.69
50590;BME280;36547;50.514;30.840;2023-05-22T00:07:06;100470.39;;;13.97;52.71
50590;BME280;36547;50.514;30.840;2023-05-22T00:08:08;100471.61;;;13.91;52.71
50590;BME280;36547;50.514;30.840;2023-05-22T00:09:11;100470.66;;;13.92;52.66
50590;BME280;36547;50.514;30.840;2023-05-22T00:10:13;100472.38;;;13.93;52.73
50590;BME280;36547;50.514;30.840;2023-05-22T00:11:16;100468.94;;;13.91;52.58
50590;BME280;36547;50.514;30.840;2023-05-22T00:12:18;100468.94;;;13.91;52.62
50590;BME280;36547;50.514;30.840;2023-05-22T00:13:20;100474.28;;;13.91;52.47
50590;BME280;36547;50.514;30.840;2023-05-22T00:14:23;100463.00;;;13.86;52.46
50590;BME280;36547;50.514;30.840;2023-05-22T00:15:25;100468.47;;;13.85;52.63
50590;BME280;36547;50.514;30.840;2023-05-22T00:16:28;100463.13;;;13.85;52.70
50590;BME280;36547;50.514;30.840;2023-05-22T00:17:30;100462.27;;;13.84;52.72
50590;BME280;36547;50.514;30.840;2023-05-22T00:18:33;100460.54;;;13.83;52.72
50590;BME280;36547;50.514;30.840;2023-05-22T00:19:35;100462.44;;;13.81;52.94
50590;BME280;36547;50.514;30.840;2023-05-22T00:20:38;100464.94;;;13.84;52.92
50590;BME280;36547;50.514;30.840;2023-05-22T00:21:42;100460.72;;;13.80;52.89
50590;BME280;36547;50.514;30.840;2023-05-22T00:22:44;100462.62;;;13.78;52.88
50590;BME280;36547;50.514;30.840;2023-05-22T00:23:47;100455.55;;;13.77;53.01
50590;BME280;36547;50.514;30.840;2023-05-22T00:24:49;100455.55;;;13.77;53.08
50590;BME280;36547;50.514;30.840;2023-05-22T00:25:51;100459.34;;;13.73;53.31
50590;BME280;36547;50.514;30.840;2023-05-22T00:26:54;100458.41;;;13.74;53.08
50590;BME280;36547;50.514;30.840;2023-05-22T00:27:56;100462.80;;;13.75;52.87
50590;BME280;36547;50.514;30.840;2023-05-22T00:28:58;100455.81;;;13.72;53.20
50590;BME280;36547;50.514;30.840;2023-05-22T00:30:01;100462.02;;;13.73;53.28
50590;BME280;36547;50.514;30.840;2023-05-22T00:31:03;100462.80;;;13.75;53.40
50590;BME280;36547;50.514;30.840;2023-05-22T00:32:06;100462.02;;;13.73;53.16
50590;BME280;36547;50.514;30.840;2023-05-22T00:33:08;100459.34;;;13.73;53.00
50590;BME280;36547;50.514;30.840;2023-05-22T00:34:11;100460.30;;;13.72;53.02
50590;BME280;36547;50.514;30.840;2023-05-22T00:35:13;100460.42;;;13.70;52.98
50590;BME280;36547;50.514;30.840;2023-05-22T00:36:16;100455.91;;;13.71;53.00
50590;BME280;36547;50.514;30.840;2023-05-22T00:37:18;100457.84;;;13.69;52.95
50590;BME280;36547;50.514;30.840;2023-05-22T00:38:32;100460.51;;;13.69;53.08
50590;BME280;36547;50.514;30.840;2023-05-22T00:39:35;100466.80;;;13.68;53.24
50590;BME280;36547;50.514;30.840;2023-05-22T00:40:38;100463.36;;;13.66;53.45
50590;BME280;36547;50.514;30.840;2023-05-22T00:41:41;100466.97;;;13.65;53.27
50590;BME280;36547;50.514;30.840;2023-05-22T00:42:43;100463.36;;;13.66;53.24
50590;BME280;36547;50.514;30.840;2023-05-22T00:43:46;100457.06;;;13.67;53.56
50590;BME280;36547;50.514;30.840;2023-05-22T00:44:49;100455.43;;;13.64;53.54
50590;BME280;36547;50.514;30.840;2023-05-22T00:45:51;100454.48;;;13.65;53.50
50590;BME280;36547;50.514;30.840;2023-05-22T00:46:54;100457.33;;;13.62;53.42
50590;BME280;36547;50.514;30.840;2023-05-22T00:47:57;100457.33;;;13.62;53.43
50590;BME280;36547;50.514;30.840;2023-05-22T00:48:59;100453.02;;;13.60;53.38
50590;BME280;36547;50.514;30.840;2023-05-22T00:50:03;100453.20;;;13.57;53.46
50590;BME280;36547;50.514;30.840;2023-05-22T00:51:06;100453.97;;;13.59;53.70
50590;BME280;36547;50.514;30.840;2023-05-22T00:52:09;100451.51;;;13.56;53.57
50590;BME280;36547;50.514;30.840;2023-05-22T00:53:13;100453.20;;;13.57;53.53
50590;BME280;36547;50.514;30.840;2023-05-22T00:54:16;100444.45;;;13.55;53.56
50590;BME280;36547;50.514;30.840;2023-05-22T00:55:18;100448.06;;;13.54;53.69
50590;BME280;36547;50.514;30.840;2023-05-22T00:56:21;100451.77;;;13.51;53.80
50590;BME280;36547;50.514;30.840;2023-05-22T00:57:23;100446.34;;;13.53;53.77
50590;BME280;36547;50.514;30.840;2023-05-22T00:58:26;100464.09;;;13.54;53.57
50590;BME280;36547;50.514;30.840;2023-05-22T00:59:30;100457.88;;;13.53;53.86
50590;BME280;36547;50.514;30.840;2023-05-22T01:00:36;100460.47;;;13.55;54.05
50590;BME280;36547;50.514;30.840;2023-05-22T01:01:40;100457.80;;;13.55;53.55
50590;BME280;36547;50.514;30.840;2023-05-22T01:02:42;100455.13;;;13.55;53.48
50590;BME280;36547;50.514;30.840;2023-05-22T01:03:46;100455.48;;;13.49;53.53
50590;BME280;36547;50.514;30.840;2023-05-22T01:04:49;100458.75;;;13.54;53.88
50590;BME280;36547;50.514;30.840;2023-05-22T01:05:51;100458.83;;;13.52;53.86
50590;BME280;36547;50.514;30.840;2023-05-22T01:06:54;100454.53;;;13.50;53.97
50590;BME280;36547;50.514;30.840;2023-05-22T01:07:57;100451.17;;;13.46;53.89
50590;BME280;36547;50.514;30.840;2023-05-22T01:08:59;100455.48;;;13.49;53.97
50590;BME280;36547;50.514;30.840;2023-05-22T01:10:06;100451.95;;;13.48;53.95
50590;BME280;36547;50.514;30.840;2023-05-22T01:11:20;100448.41;;;13.48;53.81
50590;BME280;36547;50.514;30.840;2023-05-22T01:13:58;100445.96;;;13.59;53.98
50590;BME280;36547;50.514;30.840;2023-05-22T01:16:40;100446.30;;;13.38;54.41
50590;BME280;36547;50.514;30.840;2023-05-22T01:20:28;100447.20;;;13.53;54.04
50590;BME280;36547;50.514;30.840;2023-05-22T01:21:34;100444.92;;;13.31;54.31
50590;BME280;36547;50.514;30.840;2023-05-22T01:24:11;100438.51;;;13.50;54.17
50590;BME280;36547;50.514;30.840;2023-05-22T01:31:26;100442.08;;;13.34;54.13
50590;BME280;36547;50.514;30.840;2023-05-22T01:32:31;100437.77;;;13.32;54.22
50590;BME280;36547;50.514;30.840;2023-05-22T01:33:56;100442.16;;;13.33;54.34
50590;BME280;36547;50.514;30.840;2023-05-22T01:35:03;100443.97;;;13.32;54.25
50590;BME280;36547;50.514;30.840;2023-05-22T01:36:06;100442.25;;;13.31;54.25
50590;BME280;36547;50.514;30.840;2023-05-22T01:37:10;100438.63;;;13.32;54.21
50590;BME280;36547;50.514;30.840;2023-05-22T01:38:13;100442.42;;;13.28;54.38
50590;BME280;36547;50.514;30.840;2023-05-22T01:39:17;100442.42;;;13.28;54.32
50590;BME280;36547;50.514;30.840;2023-05-22T01:40:20;100438.23;;;13.24;54.39
50590;BME280;36547;50.514;30.840;2023-05-22T01:41:24;100439.18;;;13.23;54.62
50590;BME280;36547;50.514;30.840;2023-05-22T01:42:26;100434.79;;;13.22;54.60
50590;BME280;36547;50.514;30.840;2023-05-22T01:43:29;100437.45;;;13.22;54.86
50590;BME280;36547;50.514;30.840;2023-05-22T01:44:31;100440.21;;;13.21;54.66
50590;BME280;36547;50.514;30.840;2023-05-22T01:45:33;100436.59;;;13.22;54.69
50590;BME280;36547;50.514;30.840;2023-05-22T01:46:37;100431.26;;;13.22;54.54
50590;BME280;36547;50.514;30.840;2023-05-22T01:47:39;100430.40;;;13.21;54.86
50590;BME280;36547;50.514;30.840;2023-05-22T01:48:42;100435.73;;;13.21;54.75
50590;BME280;36547;50.514;30.840;2023-05-22T01:49:45;100435.73;;;13.21;54.76
50590;BME280;36547;50.514;30.840;2023-05-22T01:50:50;100432.29;;;13.19;54.92
50590;BME280;36547;50.514;30.840;2023-05-22T01:51:56;100433.06;;;13.21;54.87
50590;BME280;36547;50.514;30.840;2023-05-22T01:54:42;100434.02;;;13.20;54.95
50590;BME280;36547;50.514;30.840;2023-05-22T01:55:47;100435.73;;;13.21;54.81
50590;BME280;36547;50.514;30.840;2023-05-22T01:59:53;100435.73;;;13.21;54.85
50590;BME280;36547;50.514;30.840;2023-05-22T02:00:57;100433.84;;;13.23;54.67
50590;BME280;36547;50.514;30.840;2023-05-22T02:02:02;100431.52;;;13.17;54.72
50590;BME280;36547;50.514;30.840;2023-05-22T02:03:07;100434.19;;;13.17;54.76
50590;BME280;36547;50.514;30.840;2023-05-22T02:04:12;100435.22;;;13.15;54.93
50590;BME280;36547;50.514;30.840;2023-05-22T02:05:17;100429.87;;;13.15;54.93
50590;BME280;36547;50.514;30.840;2023-05-22T02:06:20;100426.61;;;13.09;54.92
50590;BME280;36547;50.514;30.840;2023-05-22T02:07:25;100429.27;;;13.09;54.99
50590;BME280;36547;50.514;30.840;2023-05-22T02:08:30;100434.69;;;13.08;55.19
50590;BME280;36547;50.514;30.840;2023-05-22T02:09:34;100426.08;;;13.03;55.12
50590;BME280;36547;50.514;30.840;2023-05-22T02:10:39;100423.58;;;13.00;55.36
50590;BME280;36547;50.514;30.840;2023-05-22T02:11:45;100433.14;;;13.04;55.39
50590;BME280;36547;50.514;30.840;2023-05-22T02:12:49;100427.97;;;13.01;55.52
50590;BME280;36547;50.514;30.840;2023-05-22T02:13:52;100420.05;;;12.99;55.45
50590;BME280;36547;50.514;30.840;2023-05-22T02:14:54;100428.05;;;12.99;55.49
50590;BME280;36547;50.514;30.840;2023-05-22T02:15:57;100417.39;;;12.99;55.45
50590;BME280;36547;50.514;30.840;2023-05-22T02:17:00;100429.03;;;12.98;55.53
50590;BME280;36547;50.514;30.840;2023-05-22T02:18:02;100421.86;;;12.99;55.64
50590;BME280;36547;50.514;30.840;2023-05-22T02:19:05;100423.78;;;12.97;55.63
50590;BME280;36547;50.514;30.840;2023-05-22T02:20:11;100416.64;;;12.97;55.48
50590;BME280;36547;50.514;30.840;2023-05-22T02:21:16;100414.84;;;12.98;55.19
50590;BME280;36547;50.514;30.840;2023-05-22T02:22:19;100421.86;;;12.99;55.35
50590;BME280;36547;50.514;30.840;2023-05-22T02:23:21;100421.12;;;12.97;55.36
50590;BME280;36547;50.514;30.840;2023-05-22T02:24:24;100424.45;;;13.00;55.26
50590;BME280;36547;50.514;30.840;2023-05-22T02:25:27;100428.84;;;13.01;55.38
50590;BME280;36547;50.514;30.840;2023-05-22T02:26:30;100426.25;;;13.00;55.31
50590;BME280;36547;50.514;30.840;2023-05-22T02:27:32;100427.11;;;13.00;55.61
50590;BME280;36547;50.514;30.840;2023-05-22T02:28:34;100430.64;;;13.01;55.46
50590;BME280;36547;50.514;30.840;2023-05-22T02:29:37;100426.37;;;12.98;55.43
50590;BME280;36547;50.514;30.840;2023-05-22T02:30:41;100421.98;;;12.97;55.49
50590;BME280;36547;50.514;30.840;2023-05-22T02:31:44;100422.84;;;12.98;55.53
50590;BME280;36547;50.514;30.840;2023-05-22T02:32:46;100419.31;;;12.97;55.50
50590;BME280;36547;50.514;30.840;2023-05-22T02:33:48;100425.39;;;12.99;55.43
50590;BME280;36547;50.514;30.840;2023-05-22T02:34:51;100426.63;;;12.94;55.48
50590;BME280;36547;50.514;30.840;2023-05-22T02:35:55;100436.43;;;12.93;55.58
50590;BME280;36547;50.514;30.840;2023-05-22T02:36:58;100425.76;;;12.93;55.57
50590;BME280;36547;50.514;30.840;2023-05-22T02:38:01;100419.56;;;12.93;55.48
50590;BME280;36547;50.514;30.840;2023-05-22T02:39:04;100426.63;;;12.94;55.45
50590;BME280;36547;50.514;30.840;2023-05-22T02:40:08;100422.23;;;12.93;55.52
50590;BME280;36547;50.514;30.840;2023-05-22T02:41:10;100425.84;;;12.92;55.24
50590;BME280;36547;50.514;30.840;2023-05-22T02:42:13;100427.56;;;12.93;55.32
50590;BME280;36547;50.514;30.840;2023-05-22T02:43:15;100418.70;;;12.92;55.31
50590;BME280;36547;50.514;30.840;2023-05-22T02:44:18;100422.40;;;12.90;55.34
50590;BME280;36547;50.514;30.840;2023-05-22T02:45:20;100428.67;;;12.89;55.47
50590;BME280;36547;50.514;30.840;2023-05-22T02:46:23;100429.63;;;12.88;55.65
50590;BME280;36547;50.514;30.840;2023-05-22T02:47:25;100420.76;;;12.87;55.66
50590;BME280;36547;50.514;30.840;2023-05-22T02:48:27;100428.67;;;12.89;55.54
50590;BME280;36547;50.514;30.840;2023-05-22T02:49:29;100430.41;;;12.90;55.70
50590;BME280;36547;50.514;30.840;2023-05-22T02:50:32;100427.04;;;12.86;55.64
50590;BME280;36547;50.514;30.840;2023-05-22T02:51:34;100430.56;;;12.87;55.70
50590;BME280;36547;50.514;30.840;2023-05-22T02:52:37;100434.95;;;12.88;55.73
50590;BME280;36547;50.514;30.840;2023-05-22T02:53:40;100437.45;;;12.91;55.77
50590;BME280;36547;50.514;30.840;2023-05-22T02:54:42;100429.54;;;12.89;55.58
50590;BME280;36547;50.514;30.840;2023-05-22T02:55:45;100437.63;;;12.88;55.51
50590;BME280;36547;50.514;30.840;2023-05-22T02:56:47;100432.04;;;12.92;55.60
50590;BME280;36547;50.514;30.840;2023-05-22T02:57:50;100426.79;;;12.91;55.69
50590;BME280;36547;50.514;30.840;2023-05-22T02:58:53;100427.65;;;12.91;55.55
50590;BME280;36547;50.514;30.840;2023-05-22T02:59:59;100439.27;;;12.90;55.42
50590;BME280;36547;50.514;30.840;2023-05-22T03:01:05;100426.79;;;12.91;55.83
50590;BME280;36547;50.514;30.840;2023-05-22T03:02:26;100435.66;;;12.91;55.60
50590;BME280;36547;50.514;30.840;2023-05-22T03:03:39;100439.18;;;12.92;55.87
50590;BME280;36547;50.514;30.840;2023-05-22T03:04:46;100433.77;;;12.93;55.78
50590;BME280;36547;50.514;30.840;2023-05-22T03:05:56;100434.54;;;12.95;55.78
50590;BME280;36547;50.514;30.840;2023-05-22T03:07:00;100436.18;;;12.98;55.70
50590;BME280;36547;50.514;30.840;2023-05-22T03:08:12;100433.59;;;12.96;55.55
50590;BME280;36547;50.514;30.840;2023-05-22T03:09:20;100435.41;;;12.96;55.81
50590;BME280;36547;50.514;30.840;2023-05-22T03:10:28;100436.18;;;12.98;55.67
50590;BME280;36547;50.514;30.840;2023-05-22T03:11:34;100449.52;;;12.98;55.78
50590;BME280;36547;50.514;30.840;2023-05-22T03:12:39;100436.06;;;12.99;55.89
50590;BME280;36547;50.514;30.840;2023-05-22T03:13:46;100435.81;;;13.04;55.88
50590;BME280;36547;50.514;30.840;2023-05-22T03:14:52;100445.53;;;13.05;55.95
50590;BME280;36547;50.514;30.840;2023-05-22T03:16:18;100443.81;;;13.04;56.01
50590;BME280;36547;50.514;30.840;2023-05-22T03:17:26;100436.59;;;13.06;55.99
50590;BME280;36547;50.514;30.840;2023-05-22T03:18:34;100440.03;;;13.08;55.85
50590;BME280;36547;50.514;30.840;2023-05-22T03:19:40;100440.03;;;13.08;55.91
50590;BME280;36547;50.514;30.840;2023-05-22T03:20:45;100443.56;;;13.08;55.72
50590;BME280;36547;50.514;30.840;2023-05-22T03:21:51;100444.34;;;13.10;55.79
50590;BME280;36547;50.514;30.840;2023-05-22T03:22:59;100441.75;;;13.09;56.07
50590;BME280;36547;50.514;30.840;2023-05-22T03:24:04;100443.27;;;13.13;56.03
50590;BME280;36547;50.514;30.840;2023-05-22T03:25:12;100438.75;;;13.15;56.01
50590;BME280;36547;50.514;30.840;2023-05-22T03:26:23;100434.32;;;13.14;56.13
50590;BME280;36547;50.514;30.840;2023-05-22T03:27:29;100440.55;;;13.15;56.08
50590;BME280;36547;50.514;30.840;2023-05-22T03:28:35;100435.13;;;13.16;56.04
50590;BME280;36547;50.514;30.840;2023-05-22T03:29:41;100440.21;;;13.21;55.98
50590;BME280;36547;50.514;30.840;2023-05-22T03:30:50;100437.55;;;13.21;56.16
50590;BME280;36547;50.514;30.840;2023-05-22T03:31:57;100434.79;;;13.22;56.21
50590;BME280;36547;50.514;30.840;2023-05-22T03:33:05;100440.05;;;13.24;56.12
50590;BME280;36547;50.514;30.840;2023-05-22T03:34:11;100438.23;;;13.24;55.81
50590;BME280;36547;50.514;30.840;2023-05-22T03:35:24;100442.42;;;13.28;55.76
50590;BME280;36547;50.514;30.840;2023-05-22T03:36:26;100439.66;;;13.30;55.76
50590;BME280;36547;50.514;30.840;2023-05-22T03:37:34;100440.35;;;13.33;55.65
50590;BME280;36547;50.514;30.840;2023-05-22T03:38:40;100441.22;;;13.34;55.55
50590;BME280;36547;50.514;30.840;2023-05-22T03:39:52;100435.79;;;13.35;55.69
50590;BME280;36547;50.514;30.840;2023-05-22T03:40:58;100438.28;;;13.38;55.88
50590;BME280;36547;50.514;30.840;2023-05-22T03:42:04;100435.53;;;13.40;55.63
50590;BME280;36547;50.514;30.840;2023-05-22T03:43:13;100433.42;;;13.45;55.55
50590;BME280;36547;50.514;30.840;2023-05-22T03:44:16;100439.55;;;13.47;55.56
50590;BME280;36547;50.514;30.840;2023-05-22T03:45:23;100437.73;;;13.48;55.73
50590;BME280;36547;50.514;30.840;2023-05-22T03:46:27;100446.52;;;13.50;55.46
50590;BME280;36547;50.514;30.840;2023-05-22T03:47:30;100437.56;;;13.51;55.66
50590;BME280;36547;50.514;30.840;2023-05-22T03:48:33;100441.86;;;13.53;55.93
50590;BME280;36547;50.514;30.840;2023-05-22T03:49:38;100439.84;;;13.57;55.93
50590;BME280;36547;50.514;30.840;2023-05-22T03:50:42;100442.25;;;13.61;55.63
50590;BME280;36547;50.514;30.840;2023-05-22T03:51:47;100438.45;;;13.65;55.39
50590;BME280;36547;50.514;30.840;2023-05-22T03:52:51;100440.09;;;13.68;55.16
50590;BME280;36547;50.514;30.840;2023-05-22T03:53:59;100439.88;;;13.71;55.74
50590;BME280;36547;50.514;30.840;2023-05-22T03:55:10;100442.38;;;13.74;54.97
50590;BME280;36547;50.514;30.840;2023-05-22T03:56:14;100439.53;;;13.77;54.89
50590;BME280;36547;50.514;30.840;2023-05-22T03:57:21;100436.67;;;13.80;55.12
50590;BME280;36547;50.514;30.840;2023-05-22T03:58:27;100443.56;;;13.84;54.78
50590;BME280;36547;50.514;30.840;2023-05-22T03:59:34;100449.64;;;13.86;54.51
50590;BME280;36547;50.514;30.840;2023-05-22T04:00:38;100445.07;;;13.88;54.35
50590;BME280;36547;50.514;30.840;2023-05-22T04:01:47;100443.94;;;13.92;54.08
50590;BME280;36547;50.514;30.840;2023-05-22T04:02:55;100436.70;;;13.94;53.97
50590;BME280;36547;50.514;30.840;2023-05-22T04:04:06;100441.00;;;13.97;54.14
50590;BME280;36547;50.514;30.840;2023-05-22T04:05:13;100438.02;;;14.01;54.08
50590;BME280;36547;50.514;30.840;2023-05-22T04:06:17;100441.47;;;14.03;53.85
50590;BME280;36547;50.514;30.840;2023-05-22T04:07:23;100441.28;;;14.06;53.59
50590;BME280;36547;50.514;30.840;2023-05-22T04:08:29;100441.96;;;14.10;53.42
50590;BME280;36547;50.514;30.840;2023-05-22T04:09:34;100434.71;;;14.12;53.77
50590;BME280;36547;50.514;30.840;2023-05-22T04:10:43;100440.70;;;14.15;53.80
50590;BME280;36547;50.514;30.840;2023-05-22T04:11:53;100437.84;;;14.19;53.51
50590;BME280;36547;50.514;30.840;2023-05-22T04:12:58;100440.34;;;14.22;53.47
50590;BME280;36547;50.514;30.840;2023-05-22T04:14:05;100433.09;;;14.24;53.68
50590;BME280;36547;50.514;30.840;2023-05-22T04:15:08;100434.72;;;14.26;53.08
50590;BME280;36547;50.514;30.840;2023-05-22T04:16:16;100435.48;;;14.28;53.15
50590;BME280;36547;50.514;30.840;2023-05-22T04:17:22;100432.69;;;14.30;53.44
50590;BME280;36547;50.514;30.840;2023-05-22T04:18:28;100423.62;;;14.32;53.47
50590;BME280;36547;50.514;30.840;2023-05-22T04:19:32;100426.97;;;14.36;53.27
50590;BME280;36547;50.514;30.840;2023-05-22T04:20:38;100423.25;;;14.38;53.09
50590;BME280;36547;50.514;30.840;2023-05-22T04:21:42;100427.58;;;14.41;52.91
50590;BME280;36547;50.514;30.840;2023-05-22T04:22:47;100424.69;;;14.44;52.57
50590;BME280;36547;50.514;30.840;2023-05-22T04:23:54;100431.66;;;14.46;52.56
50590;BME280;36547;50.514;30.840;2023-05-22T04:25:01;100429.75;;;14.48;52.24
50590;BME280;36547;50.514;30.840;2023-05-22T04:26:05;100423.27;;;14.53;52.48
50590;BME280;36547;50.514;30.840;2023-05-22T04:27:10;100430.33;;;14.54;52.55
50590;BME280;36547;50.514;30.840;2023-05-22T04:28:19;100418.59;;;14.56;52.53
50590;BME280;36547;50.514;30.840;2023-05-22T04:29:26;100425.44;;;14.60;52.17
50590;BME280;36547;50.514;30.840;2023-05-22T04:30:32;100424.38;;;14.63;52.22
50590;BME280;36547;50.514;30.840;2023-05-22T04:31:43;100427.83;;;14.65;52.00
50590;BME280;36547;50.514;30.840;2023-05-22T04:32:46;100429.45;;;14.67;52.18
50590;BME280;36547;50.514;30.840;2023-05-22T04:33:54;100426.59;;;14.70;52.02
50590;BME280;36547;50.514;30.840;2023-05-22T04:35:00;100424.64;;;14.72;52.45
50590;BME280;36547;50.514;30.840;2023-05-22T04:36:08;100424.45;;;14.75;52.06
50590;BME280;36547;50.514;30.840;2023-05-22T04:37:20;100425.22;;;14.77;52.35
50590;BME280;36547;50.514;30.840;2023-05-22T04:38:24;100425.98;;;14.79;51.39
50590;BME280;36547;50.514;30.840;2023-05-22T04:39:31;100431.04;;;14.84;51.57
50590;BME280;36547;50.514;30.840;2023-05-22T04:40:39;100424.73;;;14.85;51.71
50590;BME280;36547;50.514;30.840;2023-05-22T04:41:45;100432.44;;;14.90;51.45
50590;BME280;36547;50.514;30.840;2023-05-22T04:42:49;100425.17;;;14.92;51.46
50590;BME280;36547;50.514;30.840;2023-05-22T04:43:55;100429.47;;;14.94;51.33
50590;BME280;36547;50.514;30.840;2023-05-22T04:45:00;100430.23;;;14.96;51.51
50590;BME280;36547;50.514;30.840;2023-05-22T04:46:08;100426.51;;;14.99;51.68
50590;BME280;36547;50.514;30.840;2023-05-22T04:47:13;100428.00;;;15.03;51.82
50590;BME280;36547;50.514;30.840;2023-05-22T04:48:21;100425.23;;;15.04;52.06
50590;BME280;36547;50.514;30.840;2023-05-22T04:49:27;100426.84;;;15.07;51.28
50590;BME280;36547;50.514;30.840;2023-05-22T04:50:32;100429.33;;;15.10;51.35
50590;BME280;36547;50.514;30.840;2023-05-22T04:51:40;100429.13;;;15.13;51.31
50590;BME280;36547;50.514;30.840;2023-05-22T04:52:59;100433.40;;;15.15;51.25
50590;BME280;36547;50.514;30.840;2023-05-22T04:54:06;100423.35;;;15.19;51.23
50590;BME280;36547;50.514;30.840;2023-05-22T04:55:10;100427.75;;;15.20;51.07
50590;BME280;36547;50.514;30.840;2023-05-22T04:56:16;100422.30;;;15.21;50.99
50590;BME280;36547;50.514;30.840;2023-05-22T04:57:24;100425.73;;;15.24;51.36
50590;BME280;36547;50.514;30.840;2023-05-22T04:58:28;100424.68;;;15.26;50.88
50590;BME280;36547;50.514;30.840;2023-05-22T04:59:35;100428.98;;;15.29;51.62
50590;BME280;36547;50.514;30.840;2023-05-22T05:00:48;100426.30;;;15.29;51.01
50590;BME280;36547;50.514;30.840;2023-05-22T05:01:55;100427.89;;;15.31;51.25
50590;BME280;36547;50.514;30.840;2023-05-22T05:03:01;100425.11;;;15.33;51.10
50590;BME280;36547;50.514;30.840;2023-05-22T05:04:12;100423.19;;;15.35;51.66
50590;BME280;36547;50.514;30.840;2023-05-22T05:05:16;100425.77;;;15.36;51.36
50590;BME280;36547;50.514;30.840;2023-05-22T05:06:23;100426.63;;;15.37;51.49
50590;BME280;36547;50.514;30.840;2023-05-22T05:07:42;100429.20;;;15.38;51.42
50590;BME280;36547;50.514;30.840;2023-05-22T05:08:49;100427.19;;;15.42;51.47
50590;BME280;36547;50.514;30.840;2023-05-22T05:10:13;100420.02;;;15.42;51.51
50590;BME280;36547;50.514;30.840;2023-05-22T05:11:17;100426.86;;;15.46;51.69
50590;BME280;36547;50.514;30.840;2023-05-22T05:12:22;100427.62;;;15.48;51.30
50590;BME280;36547;50.514;30.840;2023-05-22T05:13:28;100428.38;;;15.50;51.29
50590;BME280;36547;50.514;30.840;2023-05-22T05:14:34;100421.95;;;15.53;50.97
50590;BME280;36547;50.514;30.840;2023-05-22T05:15:40;100419.18;;;15.54;51.22
50590;BME280;36547;50.514;30.840;2023-05-22T05:16:46;100419.87;;;15.58;51.02
50590;BME280;36547;50.514;30.840;2023-05-22T05:17:52;100424.13;;;15.61;51.50
50590;BME280;36547;50.514;30.840;2023-05-22T05:18:57;100418.57;;;15.64;51.52
50590;BME280;36547;50.514;30.840;2023-05-22T05:20:00;100424.59;;;15.67;51.59
50590;BME280;36547;50.514;30.840;2023-05-22T05:21:07;100417.20;;;15.71;51.22
50590;BME280;36547;50.514;30.840;2023-05-22T05:22:15;100424.14;;;15.73;51.06
50590;BME280;36547;50.514;30.840;2023-05-22T05:23:19;100424.80;;;15.77;51.63
50590;BME280;36547;50.514;30.840;2023-05-22T05:24:25;100422.78;;;15.80;51.54
50590;BME280;36547;50.514;30.840;2023-05-22T05:25:35;100422.58;;;15.83;51.60
50590;BME280;36547;50.514;30.840;2023-05-22T05:26:39;100423.09;;;15.88;51.62
50590;BME280;36547;50.514;30.840;2023-05-22T05:27:46;100427.39;;;15.91;51.02
50590;BME280;36547;50.514;30.840;2023-05-22T05:28:55;100423.54;;;15.95;50.96
50590;BME280;36547;50.514;30.840;2023-05-22T05:30:04;100426.02;;;15.98;50.32
50590;BME280;36547;50.514;30.840;2023-05-22T05:31:10;100431.99;;;16.02;50.21
50590;BME280;36547;50.514;30.840;2023-05-22T05:32:24;100423.74;;;16.05;50.33
50590;BME280;36547;50.514;30.840;2023-05-22T05:33:33;100425.45;;;16.18;50.15
50590;BME280;36547;50.514;30.840;2023-05-22T05:34:54;100424.19;;;16.11;50.21
50590;BME280;36547;50.514;30.840;2023-05-22T05:35:58;100429.20;;;16.16;50.24
50590;BME280;36547;50.514;30.840;2023-05-22T05:37:01;100428.89;;;16.20;49.83
50590;BME280;36547;50.514;30.840;2023-05-22T05:38:03;100430.39;;;16.24;49.76
50590;BME280;36547;50.514;30.840;2023-05-22T05:39:07;100426.64;;;16.27;49.81
50590;BME280;36547;50.514;30.840;2023-05-22T05:40:12;100421.80;;;16.32;49.62
50590;BME280;36547;50.514;30.840;2023-05-22T05:41:16;100419.00;;;16.34;49.82
50590;BME280;36547;50.514;30.840;2023-05-22T05:42:20;100429.52;;;16.37;49.59
50590;BME280;36547;50.514;30.840;2023-05-22T05:43:23;100432.75;;;16.42;49.91
50590;BME280;36547;50.514;30.840;2023-05-22T05:44:25;100425.45;;;16.44;50.23
50590;BME280;36547;50.514;30.840;2023-05-22T05:45:28;100430.46;;;16.48;49.82
50590;BME280;36547;50.514;30.840;2023-05-22T05:46:32;100424.02;;;16.51;49.44
50590;BME280;36547;50.514;30.840;2023-05-22T05:47:35;100424.67;;;16.54;49.15
50590;BME280;36547;50.514;30.840;2023-05-22T05:48:38;100420.91;;;16.57;49.34
50590;BME280;36547;50.514;30.840;2023-05-22T05:49:41;100419.70;;;16.61;49.29
50590;BME280;36547;50.514;30.840;2023-05-22T05:50:44;100419.52;;;16.64;49.76
50590;BME280;36547;50.514;30.840;2023-05-22T05:51:46;100419.30;;;16.67;49.67
50590;BME280;36547;50.514;30.840;2023-05-22T05:52:50;100412.75;;;16.71;50.35
50590;BME280;36547;50.514;30.840;2023-05-22T05:53:53;100419.58;;;16.75;48.83
50590;BME280;36547;50.514;30.840;2023-05-22T05:54:56;100414.75;;;16.80;48.64